Time;durP1;ratioP1;P1;durP2;ratioP2;P2;SDS_P1;SDS_P2;PMS_P1;PMS_P2;Temp;Humidity;BMP_temperature;BMP_pressure;BME280_temperature;BME280_humidity;BME280_pressure;Samples;Min_cycle;Max_cycle;Signal;HPM_P1;HPM_P2
2023/06/27 00:00:53;;;;;;;;;;;;;;;19.88;44.53;101015.59;4865614;29;6805;-73
2023/06/27 00:03:19;;;;;;;;;;;;;;;19.88;44.71;101006.09;4849426;29;7348;-74
2023/06/27 00:05:46;;;;;;;;;;;;;;;19.89;44.58;101012.16;4844444;29;6829;-73
2023/06/27 00:08:12;;;;;;;;;;;;;;;19.88;44.67;101011.28;4847894;29;6813;-74
2023/06/27 00:10:38;;;;;;;;;;;;;;;19.85;44.40;101009.50;4847203;29;6805;-74
2023/06/27 00:13:04;;;;;;;;;;;;;;;19.83;45.00;101013.81;4862042;29;6947;-73
2023/06/27 00:15:34;;;;;;;;;;;;;;;19.80;44.76;101005.94;4844360;29;8129;-73
2023/06/27 00:17:59;;;;;;;;;;;;;;;19.77;44.82;101005.00;4851632;29;6987;-74
2023/06/27 00:20:25;;;;;;;;;;;;;;;19.75;44.72;101010.16;4847748;29;7161;-73
2023/06/27 00:22:51;;;;;;;;;;;;;;;19.72;45.18;101010.13;4847162;29;6772;-74
2023/06/27 00:25:17;;;;;;;;;;;;;;;19.70;45.33;101006.59;4858011;29;7032;-74
2023/06/27 00:27:42;;;;;;;;;;;;;;;19.69;45.49;101010.03;4845579;29;6837;-74
2023/06/27 00:30:08;;;;;;;;;;;;;;;19.69;45.68;101010.94;4843715;29;7167;-73
2023/06/27 00:32:34;;;;;;;;;;;;;;;19.70;45.72;101009.19;4847886;29;6781;-73
2023/06/27 00:35:00;;;;;;;;;;;;;;;19.72;46.02;101004.91;4845725;29;7388;-74
2023/06/27 00:37:25;;;;;;;;;;;;;;;19.74;45.75;101003.22;4862227;29;6785;-73
2023/06/27 00:39:51;;;;;;;;;;;;;;;19.76;45.97;101011.06;4848976;29;7041;-73
2023/06/27 00:42:17;;;;;;;;;;;;;;;19.77;45.92;101003.28;4842333;29;7051;-73
2023/06/27 00:44:42;;;;;;;;;;;;;;;19.79;45.89;101011.97;4826524;29;7224;-73
2023/06/27 00:47:08;;;;;;;;;;;;;;;19.82;46.02;101011.16;4854987;29;7258;-73
2023/06/27 00:49:34;;;;;;;;;;;;;;;19.83;45.98;101010.31;4861968;29;6857;-73
2023/06/27 00:52:01;;;;;;;;;;;;;;;19.85;45.84;101006.91;4840942;29;6952;-74
2023/06/27 00:54:27;;;;;;;;;;;;;;;19.87;46.28;101009.53;4846896;29;6796;-74
2023/06/27 00:56:53;;;;;;;;;;;;;;;19.87;45.98;101003.44;4845136;29;7035;-73
2023/06/27 00:59:20;;;;;;;;;;;;;;;19.89;46.01;101006.94;4843653;29;6941;-73
2023/06/27 01:01:46;;;;;;;;;;;;;;;19.89;46.31;101005.25;4844798;29;6865;-74
2023/06/27 01:04:13;;;;;;;;;;;;;;;19.90;45.95;101009.59;4845064;29;6777;-74
2023/06/27 01:07:13;;;;;;;;;;;;;;;19.91;46.82;101015.69;4857750;29;6988;-73
2023/06/27 01:09:51;;;;;;;;;;;;;;;19.89;46.84;101010.44;4844830;29;6891;-73
2023/06/27 01:12:53;;;;;;;;;;;;;;;19.88;46.72;101005.19;4843973;29;7286;-74
2023/06/27 01:15:19;;;;;;;;;;;;;;;19.84;47.19;101012.06;4842890;29;7031;-74
2023/06/27 01:17:46;;;;;;;;;;;;;;;19.82;46.76;101017.25;4865948;29;7833;-73
2023/06/27 01:20:13;;;;;;;;;;;;;;;19.81;47.21;101018.09;4833749;29;7008;-74
2023/06/27 01:22:53;;;;;;;;;;;;;;;19.79;47.06;101011.97;4846753;29;7091;-73
2023/06/27 01:25:18;;;;;;;;;;;;;;;19.78;46.93;101015.41;4835088;29;7090;-73
2023/06/27 01:27:44;;;;;;;;;;;;;;;19.79;47.25;101016.31;4847096;29;6833;-74
2023/06/27 01:30:10;;;;;;;;;;;;;;;19.80;46.77;101013.75;4841424;29;6773;-73
2023/06/27 01:32:54;;;;;;;;;;;;;;;19.82;46.63;101011.16;4846057;29;7051;-73
2023/06/27 01:35:38;;;;;;;;;;;;;;;19.82;47.29;101009.44;4843016;29;6872;-73
2023/06/27 01:38:15;;;;;;;;;;;;;;;19.84;46.89;101005.16;4843695;29;6805;-73
2023/06/27 01:40:45;;;;;;;;;;;;;;;19.89;47.32;100996.53;4844602;29;7099;-72
2023/06/27 01:43:14;;;;;;;;;;;;;;;19.90;46.94;101007.00;4842647;29;6804;-74
2023/06/27 01:45:40;;;;;;;;;;;;;;;19.90;46.94;100996.59;4860383;29;6796;-74
2023/06/27 01:48:07;;;;;;;;;;;;;;;19.88;47.00;101000.88;4822454;29;6994;-73
2023/06/27 01:50:34;;;;;;;;;;;;;;;19.85;47.26;101004.31;4848494;29;6995;-74
2023/06/27 01:52:59;;;;;;;;;;;;;;;19.83;47.28;101003.41;4844929;29;6797;-73
2023/06/27 01:55:25;;;;;;;;;;;;;;;19.78;47.12;100999.81;4823279;29;6946;-73
2023/06/27 01:57:51;;;;;;;;;;;;;;;19.76;47.34;100996.31;4865137;29;6777;-74
2023/06/27 02:00:17;;;;;;;;;;;;;;;19.74;47.42;101000.63;4844128;29;6804;-72
2023/06/27 02:02:43;;;;;;;;;;;;;;;19.71;47.75;100997.97;4841622;29;7260;-73
2023/06/27 02:05:09;;;;;;;;;;;;;;;19.66;47.89;101000.47;4858136;29;6816;-74
2023/06/27 02:07:35;;;;;;;;;;;;;;;19.63;47.69;101002.13;4852754;29;7455;-73
2023/06/27 02:10:01;;;;;;;;;;;;;;;19.60;47.82;100997.75;4841640;29;7035;-73
2023/06/27 02:12:26;;;;;;;;;;;;;;;19.57;48.06;101003.75;4822898;29;6976;-73
2023/06/27 02:14:52;;;;;;;;;;;;;;;19.55;48.03;100989.84;4862504;29;7024;-73
2023/06/27 02:17:18;;;;;;;;;;;;;;;19.56;48.13;100990.75;4844717;29;7219;-72
2023/06/27 02:19:43;;;;;;;;;;;;;;;19.56;48.17;100989.00;4843565;29;6936;-73
2023/06/27 02:22:09;;;;;;;;;;;;;;;19.55;48.34;100987.25;4843400;29;6857;-72
2023/06/27 02:24:35;;;;;;;;;;;;;;;19.55;48.46;100992.44;4845707;29;6777;-73
2023/06/27 02:27:00;;;;;;;;;;;;;;;19.53;48.26;100988.94;4862047;29;7020;-74
2023/06/27 02:29:26;;;;;;;;;;;;;;;19.51;48.20;100988.03;4845752;29;6784;-73
2023/06/27 02:31:52;;;;;;;;;;;;;;;19.50;48.55;100982.81;4835574;29;7217;-73
2023/06/27 02:34:17;;;;;;;;;;;;;;;19.49;48.79;100981.06;4851773;29;6777;-72
2023/06/27 02:36:43;;;;;;;;;;;;;;;19.46;48.70;100980.97;4863716;29;6859;-72
2023/06/27 02:39:08;;;;;;;;;;;;;;;19.46;48.51;100979.25;4842352;29;6801;-73
2023/06/27 02:41:34;;;;;;;;;;;;;;;19.46;48.82;100979.25;4827351;29;7251;-74
2023/06/27 02:44:00;;;;;;;;;;;;;;;19.49;48.86;100979.31;4843015;29;6819;-73
2023/06/27 02:46:25;;;;;;;;;;;;;;;19.50;49.07;100972.41;4858195;29;6798;-73
2023/06/27 02:48:51;;;;;;;;;;;;;;;19.51;49.18;100975.03;4829321;29;6953;-74
2023/06/27 02:51:16;;;;;;;;;;;;;;;19.52;48.80;100982.00;4858247;29;6789;-73
2023/06/27 02:53:42;;;;;;;;;;;;;;;19.53;49.15;100985.47;4859106;29;6996;-73
2023/06/27 02:56:08;;;;;;;;;;;;;;;19.52;49.30;100988.91;4838584;29;6848;-74
2023/06/27 02:58:34;;;;;;;;;;;;;;;19.51;49.38;100985.44;4845606;29;6816;-74
2023/06/27 03:01:01;;;;;;;;;;;;;;;19.49;49.15;100974.13;4842999;29;7000;-73
2023/06/27 03:03:27;;;;;;;;;;;;;;;19.50;49.70;100973.25;4846302;29;6834;-74
2023/06/27 03:05:53;;;;;;;;;;;;;;;19.50;49.73;100985.41;4847585;29;6781;-73
2023/06/27 03:08:19;;;;;;;;;;;;;;;19.52;49.40;100982.00;4847602;29;6821;-73
2023/06/27 03:10:44;;;;;;;;;;;;;;;19.53;49.57;100982.84;4846392;29;7085;-73
2023/06/27 03:13:11;;;;;;;;;;;;;;;19.53;49.91;100983.75;4860718;29;6987;-73
2023/06/27 03:15:36;;;;;;;;;;;;;;;19.53;49.73;100978.56;4846785;29;6789;-73
2023/06/27 03:18:02;;;;;;;;;;;;;;;19.54;49.84;100984.59;4847058;29;6824;-74
2023/06/27 03:20:28;;;;;;;;;;;;;;;19.52;49.93;100981.09;4849440;29;6768;-74
2023/06/27 03:22:53;;;;;;;;;;;;;;;19.50;50.01;100973.25;4830972;29;6952;-73
2023/06/27 03:25:20;;;;;;;;;;;;;;;19.48;49.88;100979.31;4863193;29;7144;-74
2023/06/27 03:27:45;;;;;;;;;;;;;;;19.46;50.12;100980.97;4846058;29;6830;-73
2023/06/27 03:30:13;;;;;;;;;;;;;;;19.44;50.38;100980.97;4827883;29;7057;-74
2023/06/27 03:32:39;;;;;;;;;;;;;;;19.43;50.23;100982.66;4844351;29;6966;-74
2023/06/27 03:35:05;;;;;;;;;;;;;;;19.45;50.40;100993.09;4844185;29;7946;-73
2023/06/27 03:37:33;;;;;;;;;;;;;;;19.44;50.73;100988.75;4863125;29;6856;-73
2023/06/27 03:39:59;;;;;;;;;;;;;;;19.47;50.15;100980.16;4867066;29;6981;-75
2023/06/27 03:42:24;;;;;;;;;;;;;;;19.47;50.61;100983.59;4851129;29;7200;-74
2023/06/27 03:44:50;;;;;;;;;;;;;;;19.50;50.60;100998.41;4843950;29;6991;-73
2023/06/27 03:47:17;;;;;;;;;;;;;;;19.50;50.46;100998.41;4847386;29;7369;-73
2023/06/27 03:49:43;;;;;;;;;;;;;;;19.52;50.31;100991.50;4847891;29;6781;-73
2023/06/27 03:52:10;;;;;;;;;;;;;;;19.54;50.73;100985.50;4828265;29;7421;-73
2023/06/27 03:54:35;;;;;;;;;;;;;;;19.58;50.42;100991.63;4847477;29;6856;-73
2023/06/27 03:57:01;;;;;;;;;;;;;;;19.60;50.43;100995.13;4860997;29;6768;-73
2023/06/27 03:59:27;;;;;;;;;;;;;;;19.61;50.59;100991.69;4856608;29;6872;-73
2023/06/27 04:01:52;;;;;;;;;;;;;;;19.63;50.19;100994.34;4841521;29;6999;-73
2023/06/27 04:04:18;;;;;;;;;;;;;;;19.63;50.83;100994.34;4847954;29;6836;-73
2023/06/27 04:06:43;;;;;;;;;;;;;;;19.64;50.65;100996.09;4843418;29;7243;-73
2023/06/27 04:09:09;;;;;;;;;;;;;;;19.65;50.44;100998.72;4827882;29;6960;-72
2023/06/27 04:11:35;;;;;;;;;;;;;;;19.65;50.65;100990.94;4843541;29;6831;-72
2023/06/27 04:14:00;;;;;;;;;;;;;;;19.66;50.33;100994.38;4843152;29;6965;-73
2023/06/27 04:16:27;;;;;;;;;;;;;;;19.65;50.70;100998.72;4829259;29;7054;-72
2023/06/27 04:18:53;;;;;;;;;;;;;;;19.65;50.43;100995.22;4838658;29;7295;-73
2023/06/27 04:21:21;;;;;;;;;;;;;;;19.64;50.84;100991.75;4843956;29;7181;-73
2023/06/27 04:23:46;;;;;;;;;;;;;;;19.63;50.28;100989.13;4859511;29;6801;-71
2023/06/27 04:26:16;;;;;;;;;;;;;;;19.63;50.61;100991.72;4843538;29;6769;-71
2023/06/27 04:28:47;;;;;;;;;;;;;;;19.62;50.45;100990.84;4841349;29;7762;-71
2023/06/27 04:31:13;;;;;;;;;;;;;;;19.64;50.34;100988.28;4856072;29;6858;-71
2023/06/27 04:33:39;;;;;;;;;;;;;;;19.65;50.92;100988.31;4840937;29;6777;-71
2023/06/27 04:36:06;;;;;;;;;;;;;;;19.67;50.31;100999.63;4840745;29;7064;-70
2023/06/27 04:38:40;;;;;;;;;;;;;;;19.70;50.90;100990.97;4846896;29;6975;-71
2023/06/27 04:41:09;;;;;;;;;;;;;;;19.73;50.64;100996.28;4859771;29;6805;-72
2023/06/27 04:43:39;;;;;;;;;;;;;;;19.77;50.65;100999.81;4842445;29;6907;-70
2023/06/27 04:46:05;;;;;;;;;;;;;;;19.85;50.80;100999.09;4843756;29;7305;-69
2023/06/27 04:48:31;;;;;;;;;;;;;;;20.02;51.45;101001.19;4858715;29;8087;-70
2023/06/27 04:50:57;;;;;;;;;;;;;;;20.26;51.62;101003.34;4843567;29;6961;-70
2023/06/27 04:53:25;;;;;;;;;;;;;;;20.56;51.41;101003.81;4850116;29;6852;-70
2023/06/27 04:55:53;;;;;;;;;;;;;;;20.85;51.09;100997.38;4856877;29;6793;-71
2023/06/27 04:58:20;;;;;;;;;;;;;;;21.13;50.78;100993.41;4845014;29;6805;-71
2023/06/27 05:00:47;;;;;;;;;;;;;;;21.41;50.45;100996.41;4841051;29;7212;-71
2023/06/27 05:03:17;;;;;;;;;;;;;;;21.68;49.90;100992.41;4841755;29;6801;-71
2023/06/27 05:05:43;;;;;;;;;;;;;;;21.94;49.29;100997.03;4860811;29;6813;-71
2023/06/27 05:08:10;;;;;;;;;;;;;;;22.14;48.80;100999.84;4841824;29;8032;-70
2023/06/27 05:10:36;;;;;;;;;;;;;;;22.35;48.40;100995.66;4844901;29;6825;-70
2023/06/27 05:13:02;;;;;;;;;;;;;;;22.55;48.22;100992.38;4843275;29;7145;-71
2023/06/27 05:15:28;;;;;;;;;;;;;;;22.75;48.17;100989.91;4843725;29;6959;-71
2023/06/27 05:18:15;;;;;;;;;;;;;;;23.00;47.11;100996.19;4857751;29;7117;-71
2023/06/27 05:20:45;;;;;;;;;;;;;;;23.25;47.05;100990.19;4843779;29;6965;-71
2023/06/27 05:23:11;;;;;;;;;;;;;;;23.48;46.66;100986.88;4846291;29;6963;-70
2023/06/27 05:25:37;;;;;;;;;;;;;;;23.65;46.23;100990.38;4859384;29;6816;-71
2023/06/27 05:28:03;;;;;;;;;;;;;;;23.83;45.75;100991.31;4840668;29;7141;-72
2023/06/27 05:30:30;;;;;;;;;;;;;;;24.02;45.25;100988.72;4837278;29;6987;-69
2023/06/27 05:33:01;;;;;;;;;;;;;;;24.21;44.73;100990.53;4843919;29;7178;-70
2023/06/27 05:35:27;;;;;;;;;;;;;;;24.37;43.92;100990.53;4839246;29;6797;-70
2023/06/27 05:37:53;;;;;;;;;;;;;;;24.48;43.05;100990.53;4825378;29;8067;-71
2023/06/27 05:40:19;;;;;;;;;;;;;;;24.62;43.18;100996.66;4841210;29;7096;-71
2023/06/27 05:42:45;;;;;;;;;;;;;;;24.78;42.42;100994.91;4831371;29;7324;-70
2023/06/27 05:45:11;;;;;;;;;;;;;;;24.96;42.95;100995.75;4842532;29;7188;-72
2023/06/27 05:47:36;;;;;;;;;;;;;;;25.18;41.99;100985.19;4840414;29;6765;-72
2023/06/27 05:50:02;;;;;;;;;;;;;;;25.41;41.63;100981.63;4842795;29;6792;-71
2023/06/27 05:52:31;;;;;;;;;;;;;;;25.61;41.64;100990.28;4838678;29;6921;-71
2023/06/27 05:54:58;;;;;;;;;;;;;;;25.77;41.57;100990.19;4855254;29;6808;-71
2023/06/27 05:57:24;;;;;;;;;;;;;;;25.93;41.31;100997.09;4840422;29;6807;-71
2023/06/27 05:59:50;;;;;;;;;;;;;;;25.99;40.74;100995.31;4839072;29;6871;-71
2023/06/27 06:02:16;;;;;;;;;;;;;;;25.95;40.38;100993.59;4842852;29;6805;-70
2023/06/27 06:04:42;;;;;;;;;;;;;;;25.83;39.98;100989.28;4864970;29;6793;-70
2023/06/27 06:07:07;;;;;;;;;;;;;;;25.67;39.98;100984.13;4827619;29;7258;-72
2023/06/27 06:09:33;;;;;;;;;;;;;;;25.47;40.02;100986.81;4839534;29;6922;-71
2023/06/27 06:11:59;;;;;;;;;;;;;;;25.19;39.82;100986.94;4841829;29;6772;-70
2023/06/27 06:14:24;;;;;;;;;;;;;;;24.94;39.87;100992.25;4846806;29;6769;-71
2023/06/27 06:16:50;;;;;;;;;;;;;;;24.71;40.70;100992.28;4844704;29;6848;-72
2023/06/27 06:19:15;;;;;;;;;;;;;;;24.48;40.69;100993.16;4823165;29;6982;-71
2023/06/27 06:21:42;;;;;;;;;;;;;;;24.29;40.89;100977.47;4842462;29;7145;-72
2023/06/27 06:24:08;;;;;;;;;;;;;;;24.15;41.48;100982.69;4839070;29;6800;-70
2023/06/27 06:26:37;;;;;;;;;;;;;;;24.03;41.41;100986.13;4841993;29;6852;-70
2023/06/27 06:29:04;;;;;;;;;;;;;;;23.94;41.86;100981.72;4842686;29;6953;-73
2023/06/27 06:31:30;;;;;;;;;;;;;;;23.88;41.46;100986.97;4839238;29;6965;-70
2023/06/27 06:33:57;;;;;;;;;;;;;;;23.82;41.99;100984.34;4836838;29;10342;-70
2023/06/27 06:36:26;;;;;;;;;;;;;;;23.73;41.66;100987.81;4838638;29;7275;-71
2023/06/27 06:38:51;;;;;;;;;;;;;;;23.67;41.74;100996.53;4841433;29;6979;-72
2023/06/27 06:41:18;;;;;;;;;;;;;;;23.61;41.86;100988.63;4843493;29;6956;-72
2023/06/27 06:43:44;;;;;;;;;;;;;;;23.57;42.73;100986.91;4847613;29;6789;-70
2023/06/27 06:46:10;;;;;;;;;;;;;;;23.53;42.30;100987.75;4847401;29;6869;-72
2023/06/27 06:48:36;;;;;;;;;;;;;;;23.51;42.83;100990.34;4833458;29;6978;-73
2023/06/27 06:51:02;;;;;;;;;;;;;;;23.52;42.54;100988.59;4871952;29;6839;-73
2023/06/27 06:53:28;;;;;;;;;;;;;;;23.56;42.85;100990.34;4849133;29;6918;-73
2023/06/27 06:55:53;;;;;;;;;;;;;;;23.63;43.19;100993.88;4865549;29;6768;-73
2023/06/27 06:58:19;;;;;;;;;;;;;;;23.82;43.22;101000.03;4863954;29;6890;-73
2023/06/27 07:00:44;;;;;;;;;;;;;;;24.11;43.63;100991.41;4843158;29;6808;-72
2023/06/27 07:03:10;;;;;;;;;;;;;;;24.46;43.60;100985.31;4848020;29;6769;-73
2023/06/27 07:05:36;;;;;;;;;;;;;;;24.86;43.50;101001.88;4851428;29;6780;-73
2023/06/27 07:08:06;;;;;;;;;;;;;;;25.35;43.59;100995.59;4840954;29;7039;-74
2023/06/27 07:10:32;;;;;;;;;;;;;;;25.85;42.91;100996.28;4842390;29;6994;-73
2023/06/27 07:12:59;;;;;;;;;;;;;;;26.29;41.94;100996.88;4870532;29;6789;-73
2023/06/27 07:15:29;;;;;;;;;;;;;;;26.64;41.17;100993.94;4848389;29;6812;-73
2023/06/27 07:17:55;;;;;;;;;;;;;;;26.94;40.76;100995.41;4869748;29;6792;-73
2023/06/27 07:20:22;;;;;;;;;;;;;;;27.30;40.67;100995.88;4847787;29;7104;-73
2023/06/27 07:22:51;;;;;;;;;;;;;;;27.72;39.87;100997.13;4870686;29;6781;-73
2023/06/27 07:25:18;;;;;;;;;;;;;;;28.17;39.19;100992.94;4848454;29;9195;-73
2023/06/27 07:27:45;;;;;;;;;;;;;;;28.53;38.73;100985.34;4851405;29;6797;-73
2023/06/27 07:30:12;;;;;;;;;;;;;;;28.84;38.24;100990.06;4855263;29;7252;-73
2023/06/27 07:32:38;;;;;;;;;;;;;;;29.07;37.70;100987.00;4871938;29;6949;-73
2023/06/27 07:35:04;;;;;;;;;;;;;;;29.30;37.41;100985.63;4850869;29;6785;-73
2023/06/27 07:37:30;;;;;;;;;;;;;;;29.58;36.76;100976.28;4866895;29;7027;-73
2023/06/27 07:39:57;;;;;;;;;;;;;;;29.84;36.07;100978.31;4840650;29;7000;-73
2023/06/27 07:42:26;;;;;;;;;;;;;;;30.11;35.56;100980.38;4853170;29;6888;-73
2023/06/27 07:44:52;;;;;;;;;;;;;;;30.34;35.02;100985.97;4867625;29;6797;-73
2023/06/27 07:47:18;;;;;;;;;;;;;;;30.55;34.69;100988.06;4854095;29;7190;-73
2023/06/27 07:49:43;;;;;;;;;;;;;;;30.76;34.40;100984.00;4854840;29;6913;-73
2023/06/27 07:52:09;;;;;;;;;;;;;;;31.01;33.98;100993.91;4875934;29;6752;-72
2023/06/27 07:54:36;;;;;;;;;;;;;;;31.26;33.90;100991.47;4855458;29;6793;-73
2023/06/27 07:57:02;;;;;;;;;;;;;;;31.49;32.91;100983.75;4861758;29;7380;-74
2023/06/27 07:59:28;;;;;;;;;;;;;;;31.68;33.08;100982.25;4875619;29;7330;-73
2023/06/27 08:01:54;;;;;;;;;;;;;;;31.84;32.44;100981.78;4876604;29;6764;-73
2023/06/27 08:04:21;;;;;;;;;;;;;;;31.86;31.97;100974.63;4862164;29;6805;-73
2023/06/27 08:06:46;;;;;;;;;;;;;;;31.84;31.86;100968.53;4860383;29;6925;-72
2023/06/27 08:09:12;;;;;;;;;;;;;;;31.66;31.17;100964.66;4862322;29;6757;-73
2023/06/27 08:11:38;;;;;;;;;;;;;;;31.25;31.54;100972.97;4839550;29;7357;-73
2023/06/27 08:14:03;;;;;;;;;;;;;;;30.94;31.87;100976.47;4860946;29;6936;-73
2023/06/27 08:16:29;;;;;;;;;;;;;;;30.84;31.69;100967.91;4839350;29;7107;-73
2023/06/27 08:18:55;;;;;;;;;;;;;;;30.90;32.32;100970.41;4870286;29;6920;-73
2023/06/27 08:21:20;;;;;;;;;;;;;;;30.92;31.41;100967.72;4847470;29;7052;-73
2023/06/27 08:23:46;;;;;;;;;;;;;;;30.90;31.56;100963.34;4865318;29;6944;-73
2023/06/27 08:26:16;;;;;;;;;;;;;;;31.05;31.62;100966.44;4854908;29;7119;-72
2023/06/27 08:28:43;;;;;;;;;;;;;;;31.16;31.46;100961.69;4876347;29;6797;-73
2023/06/27 08:31:13;;;;;;;;;;;;;;;31.23;31.39;100970.34;4871783;29;6813;-73
2023/06/27 08:33:39;;;;;;;;;;;;;;;31.39;30.58;100961.97;4874839;29;6872;-74
2023/06/27 08:36:06;;;;;;;;;;;;;;;31.69;30.58;100960.13;4858382;29;6800;-73
2023/06/27 08:38:32;;;;;;;;;;;;;;;32.04;30.26;100959.94;4866200;29;6833;-73
2023/06/27 08:41:01;;;;;;;;;;;;;;;32.38;29.91;100955.28;4879996;29;6761;-73
2023/06/27 08:43:26;;;;;;;;;;;;;;;32.64;29.71;100959.66;4865468;29;6793;-73
2023/06/27 08:45:54;;;;;;;;;;;;;;;32.85;29.69;100951.84;4851493;29;6984;-73
2023/06/27 08:48:21;;;;;;;;;;;;;;;32.89;29.44;100948.16;4880735;29;6864;-73
2023/06/27 08:50:53;;;;;;;;;;;;;;;32.71;29.18;100941.72;4864041;29;6796;-73
2023/06/27 08:53:22;;;;;;;;;;;;;;;32.68;29.57;100933.91;4877059;29;7283;-73
2023/06/27 08:55:58;;;;;;;;;;;;;;;32.98;29.82;100936.34;4861006;29;6792;-73
2023/06/27 08:58:31;;;;;;;;;;;;;;;33.46;29.59;100938.94;4874226;29;6773;-73
2023/06/27 09:00:57;;;;;;;;;;;;;;;33.59;28.68;100937.56;4845229;29;6888;-73
2023/06/27 09:03:24;;;;;;;;;;;;;;;33.54;28.46;100944.88;4866618;29;7006;-73
2023/06/27 09:05:50;;;;;;;;;;;;;;;33.56;28.49;100936.81;4867553;29;6980;-73
2023/06/27 09:08:19;;;;;;;;;;;;;;;33.58;28.24;100932.31;4847607;29;6839;-73
2023/06/27 09:10:45;;;;;;;;;;;;;;;33.58;27.93;100935.81;4856428;29;6809;-73
2023/06/27 09:13:12;;;;;;;;;;;;;;;33.76;27.91;100941.31;4856012;29;7137;-74
2023/06/27 09:15:37;;;;;;;;;;;;;;;33.87;27.71;100941.72;4847242;29;7082;-73
2023/06/27 09:18:03;;;;;;;;;;;;;;;34.08;27.70;100939.13;4829438;29;6990;-73
2023/06/27 09:20:29;;;;;;;;;;;;;;;34.47;27.77;100945.47;4857585;29;6769;-74
2023/06/27 09:23:02;;;;;;;;;;;;;;;34.88;27.65;100947.22;4844130;29;7219;-74
2023/06/27 09:25:28;;;;;;;;;;;;;;;35.12;26.77;100941.72;4840567;29;6868;-73
2023/06/27 09:27:53;;;;;;;;;;;;;;;35.09;26.02;100941.84;4849259;29;6928;-73
2023/06/27 09:30:19;;;;;;;;;;;;;;;35.06;26.19;100944.66;4846840;29;6913;-74
2023/06/27 09:32:55;;;;;;;;;;;;;;;35.07;25.88;100936.59;4859595;29;6956;-72
2023/06/27 09:35:21;;;;;;;;;;;;;;;34.94;25.40;100938.94;4839592;29;7204;-72
2023/06/27 09:37:48;;;;;;;;;;;;;;;34.58;25.45;100955.66;4855822;29;7202;-69
2023/06/27 09:40:27;;;;;;;;;;;;;;;34.05;25.35;100949.91;4838320;29;6942;-70
2023/06/27 09:42:55;;;;;;;;;;;;;;;33.76;25.93;100950.16;4842176;29;7261;-70
2023/06/27 09:45:23;;;;;;;;;;;;;;;33.65;25.81;100949.72;4842624;29;7175;-69
2023/06/27 09:47:50;;;;;;;;;;;;;;;33.42;26.37;100946.19;4841158;29;6820;-69
2023/06/27 09:50:17;;;;;;;;;;;;;;;33.11;25.97;100952.69;4859107;29;6848;-70
2023/06/27 09:53:02;;;;;;;;;;;;;;;33.01;26.33;100946.84;4840104;29;6859;-68
2023/06/27 09:55:28;;;;;;;;;;;;;;;33.10;26.61;100941.19;4844373;29;6872;-69
2023/06/27 09:57:56;;;;;;;;;;;;;;;33.27;26.46;100933.50;4854812;29;6792;-69
2023/06/27 10:00:26;;;;;;;;;;;;;;;33.38;26.37;100937.47;4857498;29;7111;-71
2023/06/27 10:02:53;;;;;;;;;;;;;;;33.35;26.15;100940.25;4842495;29;7015;-70
2023/06/27 10:05:21;;;;;;;;;;;;;;;33.22;25.76;100931.00;4855381;29;6845;-69
2023/06/27 10:07:52;;;;;;;;;;;;;;;33.29;25.96;100932.50;4839920;29;6813;-69
2023/06/27 10:10:20;;;;;;;;;;;;;;;33.58;25.91;100935.81;4856172;29;6804;-72
2023/06/27 10:12:47;;;;;;;;;;;;;;;33.89;25.63;100936.38;4820354;29;6837;-72
2023/06/27 10:15:13;;;;;;;;;;;;;;;33.93;25.36;100941.50;4844440;29;7007;-70
2023/06/27 10:17:38;;;;;;;;;;;;;;;33.89;25.15;100939.88;4841062;29;6843;-69
2023/06/27 10:20:11;;;;;;;;;;;;;;;34.05;25.16;100936.59;4856924;29;6967;-70
2023/06/27 10:22:42;;;;;;;;;;;;;;;34.18;25.08;100945.78;4824503;29;6990;-69
2023/06/27 10:25:10;;;;;;;;;;;;;;;33.99;24.82;100944.81;4843281;29;6808;-70
2023/06/27 10:27:38;;;;;;;;;;;;;;;33.69;24.90;100956.66;4842584;29;6804;-70
2023/06/27 10:30:29;;;;;;;;;;;;;;;33.33;24.74;100951.84;4824257;29;7089;-70
2023/06/27 10:33:27;;;;;;;;;;;;;;;33.00;25.13;100949.59;4841389;29;11735;-69
2023/06/27 10:36:09;;;;;;;;;;;;;;;32.64;25.66;100945.53;4863335;29;6828;-70
2023/06/27 10:38:39;;;;;;;;;;;;;;;32.33;25.77;100939.50;4841669;29;7003;-70
2023/06/27 10:41:06;;;;;;;;;;;;;;;32.07;26.04;100943.06;4857225;29;6880;-71
2023/06/27 10:43:52;;;;;;;;;;;;;;;31.92;26.58;100947.06;4843074;29;6788;-70
2023/06/27 10:46:27;;;;;;;;;;;;;;;31.89;26.54;100948.06;4845114;29;6968;-71
2023/06/27 10:49:02;;;;;;;;;;;;;;;31.87;26.40;100957.84;4864476;29;6792;-70
2023/06/27 10:51:43;;;;;;;;;;;;;;;31.78;26.62;100952.81;4854837;29;6788;-70
2023/06/27 10:54:11;;;;;;;;;;;;;;;31.91;27.04;100953.28;4842644;29;7249;-70
2023/06/27 10:56:53;;;;;;;;;;;;;;;32.31;26.85;100951.09;4841524;29;8691;-71
2023/06/27 10:59:22;;;;;;;;;;;;;;;32.66;26.35;100941.06;4829987;29;7015;-70
2023/06/27 11:01:59;;;;;;;;;;;;;;;32.87;26.24;100938.53;4844496;29;6801;-70
2023/06/27 11:04:39;;;;;;;;;;;;;;;32.98;25.97;100931.03;4856671;29;6797;-70
2023/06/27 11:07:08;;;;;;;;;;;;;;;33.10;25.98;100935.03;4840478;29;6812;-70
2023/06/27 11:09:37;;;;;;;;;;;;;;;33.04;25.82;100937.91;4844190;29;6804;-69
2023/06/27 11:12:14;;;;;;;;;;;;;;;32.69;25.49;100951.53;4856572;29;6800;-69
2023/06/27 11:14:48;;;;;;;;;;;;;;;32.16;25.56;100942.75;4840436;29;6848;-69
2023/06/27 11:17:17;;;;;;;;;;;;;;;31.72;26.61;100944.13;4824216;29;6977;-69
2023/06/27 11:19:44;;;;;;;;;;;;;;;31.45;26.91;100941.44;4846170;29;6999;-70
2023/06/27 11:22:11;;;;;;;;;;;;;;;31.24;27.04;100943.00;4838519;29;6991;-70
2023/06/27 11:24:38;;;;;;;;;;;;;;;31.28;27.08;100938.44;4845596;29;7003;-70
2023/06/27 11:27:08;;;;;;;;;;;;;;;31.77;27.10;100943.09;4842856;29;7157;-69
2023/06/27 11:29:34;;;;;;;;;;;;;;;32.55;26.71;100939.66;4843396;29;6981;-69
2023/06/27 11:32:00;;;;;;;;;;;;;;;33.18;25.77;100927.63;4841113;29;6868;-70
2023/06/27 11:34:28;;;;;;;;;;;;;;;33.56;25.58;100927.06;4845485;29;7107;-70
2023/06/27 11:36:56;;;;;;;;;;;;;;;33.63;25.07;100923.22;4820601;29;7286;-69
2023/06/27 11:39:22;;;;;;;;;;;;;;;33.38;24.39;100926.00;4862815;29;6802;-73
2023/06/27 11:41:47;;;;;;;;;;;;;;;32.87;24.71;100933.22;4849948;29;6992;-73
2023/06/27 11:44:16;;;;;;;;;;;;;;;32.20;24.75;100928.47;4883312;29;6773;-72
2023/06/27 11:46:54;;;;;;;;;;;;;;;31.60;25.16;100944.53;4861842;29;6793;-72
2023/06/27 11:49:25;;;;;;;;;;;;;;;31.20;25.60;100932.50;4876519;29;7009;-73
2023/06/27 11:51:56;;;;;;;;;;;;;;;31.00;25.59;100933.94;4845163;29;6793;-72
2023/06/27 11:54:21;;;;;;;;;;;;;;;30.99;25.17;100938.38;4846334;29;7230;-72
2023/06/27 11:56:47;;;;;;;;;;;;;;;31.24;25.50;100936.81;4855560;29;6785;-72
2023/06/27 11:59:14;;;;;;;;;;;;;;;31.78;25.34;100915.72;4873714;29;6960;-72
2023/06/27 12:01:45;;;;;;;;;;;;;;;32.53;25.58;100912.28;4840624;29;7037;-72
2023/06/27 12:04:15;;;;;;;;;;;;;;;33.17;24.91;100914.41;4832053;29;7253;-73
2023/06/27 12:06:46;;;;;;;;;;;;;;;33.57;24.24;100928.78;4842898;29;6819;-73
2023/06/27 12:09:24;;;;;;;;;;;;;;;33.60;24.07;100927.81;4841072;29;6997;-73
2023/06/27 12:11:54;;;;;;;;;;;;;;;33.37;24.32;100933.06;4831627;29;7300;-72
2023/06/27 12:14:26;;;;;;;;;;;;;;;33.24;24.09;100939.81;4845643;29;7277;-73
2023/06/27 12:16:55;;;;;;;;;;;;;;;33.07;24.51;100935.13;4846401;29;6793;-73
2023/06/27 12:19:22;;;;;;;;;;;;;;;32.80;24.72;100938.75;4853010;29;7013;-73
2023/06/27 12:21:53;;;;;;;;;;;;;;;32.66;24.96;100925.13;4853237;29;6789;-72
2023/06/27 12:24:20;;;;;;;;;;;;;;;32.73;24.66;100926.63;4853185;29;6817;-72
2023/06/27 12:26:47;;;;;;;;;;;;;;;32.82;24.69;100926.28;4876016;29;6815;-72
2023/06/27 12:29:13;;;;;;;;;;;;;;;33.07;24.76;100919.19;4853719;29;7020;-72
2023/06/27 12:31:39;;;;;;;;;;;;;;;33.52;24.53;100921.00;4852169;29;6968;-73
2023/06/27 12:34:05;;;;;;;;;;;;;;;34.02;24.42;100907.50;4853516;29;6853;-73
2023/06/27 12:36:32;;;;;;;;;;;;;;;34.50;23.43;100894.75;4842733;29;7073;-73
2023/06/27 12:38:59;;;;;;;;;;;;;;;34.83;23.42;100903.97;4863916;29;6868;-73
2023/06/27 12:41:27;;;;;;;;;;;;;;;35.03;22.80;100900.38;4841912;29;6977;-72
2023/06/27 12:43:53;;;;;;;;;;;;;;;35.09;22.67;100891.25;4828460;29;7238;-73
2023/06/27 12:46:19;;;;;;;;;;;;;;;35.09;22.71;100884.13;4831216;29;6958;-72
2023/06/27 12:48:48;;;;;;;;;;;;;;;35.00;22.62;100896.06;4848885;29;6780;-73
2023/06/27 12:51:15;;;;;;;;;;;;;;;34.64;22.38;100910.13;4848105;29;6863;-72